»·PEaware :: N973SE KSBP-KBFL

N973SE :: KSBP-KBFL

FLIGHT INFORMATION

Flight Status: Arrived
Operator: Privately registered:
United States
More flights under this callsign
Pilot: Stig E. (4778)
Aircraft: Unknown
(DA62)
More flights by this aircraft type
Origin: KSBP San Luis Co Regl
United States
Destination: KBFL Meadows
United States
More flights between these airports :: More routes between these airports
Route: FLW FASTO
File this flight plan on PilotEdge
Remarks:
Altitude:
(Current/Filed)
9,500ft
Speed:
(Current/Filed)
150kts
Departed: 09-Jul-18 12:43 AM
Arrived: 09-Jul-18 01:26 AM
Distance/Time
Traveled:
79nm/0:43
Distance/Time
To Go:
Arrived

Flight Plot

Page will automatically refresh every two minutes.

Flight plan parsing failed; only flown route is shown


Map Options




Map Legend


Flown Route
Filed Route
Departure Airport
Arrival Airport
Navaid (VOR, NDB)
Fix

Horizontal Profiles

Position Reports

Time Latitude Longitude Heading Altitude Ground
Speed
09-Jul-18 00:33 35.237404 -120.636669 304 204ft 0kts
09-Jul-18 00:34 35.237154 -120.637542 216 200ft 10kts
09-Jul-18 00:35 35.235018 -120.634790 123 211ft 12kts
09-Jul-18 00:36 35.233175 -120.631815 237 213ft 0kts
09-Jul-18 00:37 35.233175 -120.631815 237 213ft 0kts
09-Jul-18 00:38 35.233168 -120.631828 237 213ft 0kts
09-Jul-18 00:39 35.233096 -120.631999 249 213ft 2kts
09-Jul-18 00:40 35.233088 -120.632030 250 213ft 0kts
09-Jul-18 00:41 35.233088 -120.632030 250 213ft 0kts
09-Jul-18 00:42 35.233088 -120.632030 250 213ft 0kts
09-Jul-18 00:43 35.233071 -120.632089 250 213ft 4kts
09-Jul-18 00:44 35.241605 -120.646889 304 514ft 98kts
09-Jul-18 00:45 35.238518 -120.672358 207 1610ft 110kts
09-Jul-18 00:46 35.216691 -120.649949 124 2750ft 121kts
09-Jul-18 00:47 35.199487 -120.615713 111 4041ft 108kts
09-Jul-18 00:48 35.195131 -120.579970 98 5273ft 108kts
09-Jul-18 00:49 35.190684 -120.543442 98 6480ft 110kts
09-Jul-18 00:50 35.185838 -120.506539 98 7668ft 112kts
09-Jul-18 00:51 35.180709 -120.468911 98 8849ft 113kts
09-Jul-18 00:52 35.174946 -120.427451 98 9519ft 152kts
09-Jul-18 00:53 35.166943 -120.370611 98 9508ft 180kts
09-Jul-18 00:54 35.158470 -120.312671 99 9507ft 183kts
09-Jul-18 00:55 35.149521 -120.251355 99 9508ft 183kts
09-Jul-18 00:56 35.140636 -120.189818 99 9509ft 183kts
09-Jul-18 00:57 35.131803 -120.128628 99 9509ft 183kts
09-Jul-18 00:58 35.122910 -120.067199 99 9509ft 183kts
09-Jul-18 00:59 35.113992 -120.005801 99 9509ft 183kts
09-Jul-18 01:00 35.104998 -119.944112 99 9509ft 185kts
09-Jul-18 01:01 35.097958 -119.881853 95 9509ft 185kts
09-Jul-18 01:02 35.104366 -119.820236 77 9509ft 184kts
09-Jul-18 01:03 35.114403 -119.758752 76 9491ft 184kts
09-Jul-18 01:04 35.125255 -119.698054 75 9149ft 182kts
09-Jul-18 01:05 35.136378 -119.637686 75 8322ft 181kts
09-Jul-18 01:06 35.147473 -119.577845 74 7519ft 180kts
09-Jul-18 01:07 35.158443 -119.518693 74 6751ft 179kts
09-Jul-18 01:08 35.169375 -119.459673 74 6111ft 177kts
09-Jul-18 01:09 35.180096 -119.401629 74 5487ft 175kts
09-Jul-18 01:10 35.190593 -119.344569 75 4882ft 173kts
09-Jul-18 01:11 35.200588 -119.288682 75 4801ft 171kts
09-Jul-18 01:12 35.211027 -119.231179 75 4800ft 174kts
09-Jul-18 01:13 35.221592 -119.173205 75 4800ft 175kts
09-Jul-18 01:14 35.232180 -119.115086 75 4800ft 175kts
09-Jul-18 01:15 35.242723 -119.057121 75 4800ft 175kts
09-Jul-18 01:16 35.253255 -118.999094 75 4800ft 175kts
09-Jul-18 01:17 35.263814 -118.940737 75 4799ft 175kts
09-Jul-18 01:18 35.273624 -118.888075 75 4893ft 136kts
09-Jul-18 01:19 35.295182 -118.874103 299 4441ft 119kts
09-Jul-18 01:20 35.312921 -118.908473 310 3810ft 117kts
09-Jul-18 01:21 35.334639 -118.936476 315 3191ft 111kts
09-Jul-18 01:22 35.356309 -118.962708 316 2590ft 107kts
09-Jul-18 01:23 35.377192 -118.987852 316 2016ft 103kts
09-Jul-18 01:24 35.396511 -119.011150 316 1486ft 94kts
09-Jul-18 01:25 35.414836 -119.033240 316 994ft 92kts
09-Jul-18 01:26 35.432137 -119.054128 317 518ft 77kts
09-Jul-18 01:27 35.436354 -119.057820 86 497ft 0kts
09-Jul-18 01:28 35.435582 -119.055983 108 497ft 23kts
09-Jul-18 01:29 35.437876 -119.056225 86 497ft 4kts
09-Jul-18 01:30 35.437877 -119.056216 86 497ft 0kts
09-Jul-18 01:31 35.437877 -119.056216 86 497ft 0kts
09-Jul-18 01:32 35.437877 -119.056216 86 497ft 0kts
09-Jul-18 01:33 35.437877 -119.056216 86 497ft 0kts
09-Jul-18 01:34 35.437877 -119.056216 86 497ft 0kts
09-Jul-18 01:35 35.437877 -119.056216 86 497ft 0kts
09-Jul-18 01:36 35.437877 -119.056216 86 497ft 0kts
09-Jul-18 01:37 35.437877 -119.056216 86 497ft 0kts
09-Jul-18 01:38 35.437877 -119.056216 86 497ft 0kts
09-Jul-18 01:39 35.437877 -119.056216 86 497ft 0kts
09-Jul-18 01:40 35.437877 -119.056216 86 497ft 0kts
09-Jul-18 01:41 35.437877 -119.056216 86 497ft 0kts

Navigation Log

Ident Type
Flight plan parsing failed, navigation log unavailable